Time;durP1;ratioP1;P1;durP2;ratioP2;P2;SDS_P1;SDS_P2;PMS_P1;PMS_P2;Temp;Humidity;BMP_temperature;BMP_pressure;BME280_temperature;BME280_humidity;BME280_pressure;Samples;Min_cycle;Max_cycle;Signal;HPM_P1;HPM_P2
2021/11/30 00:00:57;;;;;;;3.28;0.38;;;16.10;47.20;;;;;;5063735;28;20044;-46
2021/11/30 00:03:26;;;;;;;3.50;0.20;;;16.10;47.20;;;;;;5065389;28;20040;-50
2021/11/30 00:05:53;;;;;;;2.58;0.28;;;16.10;47.20;;;;;;5064416;28;20049;-47
2021/11/30 00:08:20;;;;;;;1.13;0.40;;;16.20;47.30;;;;;;5065436;28;20043;-50
2021/11/30 00:10:48;;;;;;;1.05;0.20;;;16.10;47.20;;;;;;5065866;28;20106;-52
2021/11/30 00:13:16;;;;;;;0.20;0.10;;;16.10;47.20;;;;;;5067305;28;20136;-48
2021/11/30 00:15:44;;;;;;;1.25;0.30;;;16.20;47.20;;;;;;5065302;28;20044;-51
2021/11/30 00:18:12;;;;;;;1.90;0.10;;;16.10;47.20;;;;;;5065164;28;20050;-47
2021/11/30 00:20:42;;;;;;;3.03;1.45;;;16.10;47.20;;;;;;5065762;28;20032;-50
2021/11/30 00:23:12;;;;;;;1.05;0.68;;;16.20;47.20;;;;;;5065216;28;20045;-51
2021/11/30 00:25:39;;;;;;;2.95;0.22;;;16.20;47.20;;;;;;5065860;28;20041;-47
2021/11/30 00:28:07;;;;;;;0.95;0.30;;;16.10;47.10;;;;;;5065492;28;20520;-48
2021/11/30 00:30:35;;;;;;;1.13;0.10;;;16.20;47.20;;;;;;5065425;28;20044;-47
2021/11/30 00:33:04;;;;;;;1.23;0.20;;;16.20;47.30;;;;;;5064912;28;20040;-48
2021/11/30 00:35:32;;;;;;;0.52;0.30;;;16.10;47.20;;;;;;5064732;28;20386;-50
2021/11/30 00:38:02;;;;;;;0.93;0.20;;;16.20;47.20;;;;;;5065613;28;20044;-46
2021/11/30 00:40:29;;;;;;;1.48;0.10;;;16.10;47.20;;;;;;5065643;28;20073;-51
2021/11/30 00:42:58;;;;;;;1.23;0.68;;;16.20;47.20;;;;;;5066513;28;20044;-49
2021/11/30 00:45:35;;;;;;;2.97;0.63;;;16.20;47.20;;;;;;5063918;28;20081;-45
2021/11/30 00:48:07;;;;;;;5.20;0.40;;;16.10;47.10;;;;;;5064939;28;20064;-48
2021/11/30 00:50:36;;;;;;;1.77;0.10;;;16.10;47.10;;;;;;5061265;28;20028;-50
2021/11/30 00:53:05;;;;;;;2.35;0.30;;;16.10;47.30;;;;;;5064756;28;20529;-52
2021/11/30 00:55:32;;;;;;;1.40;0.20;;;16.10;47.30;;;;;;5065249;28;20044;-50
2021/11/30 00:57:59;;;;;;;0.35;0.20;;;16.10;47.30;;;;;;5065062;28;20047;-47
2021/11/30 01:00:26;;;;;;;0.75;0.10;;;16.10;47.40;;;;;;5064469;28;20082;-48
2021/11/30 01:02:53;;;;;;;0.55;0.20;;;16.10;47.40;;;;;;5064776;28;20435;-46
2021/11/30 01:05:20;;;;;;;3.63;0.25;;;16.20;47.50;;;;;;5061620;28;20059;-48
2021/11/30 01:07:47;;;;;;;2.05;1.13;;;16.20;47.50;;;;;;5063084;28;20036;-48
2021/11/30 01:10:17;;;;;;;0.20;0.10;;;16.10;47.50;;;;;;5065406;28;20064;-46
2021/11/30 01:12:44;;;;;;;1.30;0.10;;;16.10;47.40;;;;;;5063977;28;20632;-49
2021/11/30 01:15:14;;;;;;;2.63;0.20;;;16.10;47.30;;;;;;5063079;28;20493;-44
2021/11/30 01:17:41;;;;;;;0.20;0.10;;;16.20;47.40;;;;;;5046026;28;20517;-45
2021/11/30 01:20:10;;;;;;;2.17;0.30;;;16.10;47.40;;;;;;5063381;28;20092;-45
2021/11/30 01:22:38;;;;;;;1.05;0.20;;;16.20;47.40;;;;;;5064707;28;20072;-45
2021/11/30 01:25:07;;;;;;;0.60;0.10;;;16.10;47.30;;;;;;5064426;28;20040;-47
2021/11/30 01:27:35;;;;;;;1.10;0.30;;;16.10;47.40;;;;;;5064849;28;20032;-49
2021/11/30 01:30:04;;;;;;;4.05;0.20;;;16.20;47.40;;;;;;5064582;28;20036;-43
2021/11/30 01:32:31;;;;;;;2.53;0.40;;;16.20;47.60;;;;;;5064920;28;20040;-45
2021/11/30 01:34:58;;;;;;;0.65;0.10;;;16.10;47.60;;;;;;5064641;28;20039;-46
2021/11/30 01:37:25;;;;;;;0.73;0.20;;;16.10;47.50;;;;;;5062730;28;20048;-48
2021/11/30 01:39:52;;;;;;;0.40;0.10;;;16.20;47.60;;;;;;5064925;28;20050;-46
2021/11/30 01:42:20;;;;;;;2.05;0.15;;;16.10;47.50;;;;;;5061038;28;20509;-45
2021/11/30 01:44:50;;;;;;;1.05;0.20;;;16.10;47.60;;;;;;5064336;28;20043;-45
2021/11/30 01:47:35;;;;;;;1.33;0.10;;;16.20;47.70;;;;;;5064470;28;20055;-46
2021/11/30 01:50:07;;;;;;;0.57;0.20;;;16.10;47.60;;;;;;5059931;28;20040;-45
2021/11/30 01:52:34;;;;;;;1.58;0.20;;;16.10;47.60;;;;;;5058105;28;20116;-47
2021/11/30 01:55:01;;;;;;;0.30;0.20;;;16.10;47.50;;;;;;5064622;28;20651;-48
2021/11/30 01:57:28;;;;;;;0.05;0.03;;;16.10;47.50;;;;;;5063421;28;20119;-44
2021/11/30 01:59:58;;;;;;;0.10;0.05;;;16.10;47.50;;;;;;5062822;28;20048;-48
2021/11/30 02:02:25;;;;;;;2.42;0.10;;;16.10;47.50;;;;;;5063465;28;20044;-49
2021/11/30 02:04:52;;;;;;;3.10;0.20;;;16.10;47.60;;;;;;5065418;28;20049;-47
2021/11/30 02:07:19;;;;;;;1.63;0.40;;;16.10;47.70;;;;;;5066360;28;20397;-47
2021/11/30 02:09:46;;;;;;;12.93;0.30;;;16.10;47.70;;;;;;5063309;28;20447;-48
2021/11/30 02:12:14;;;;;;;1.08;0.10;;;16.10;47.80;;;;;;5066394;28;20033;-50
2021/11/30 02:14:45;;;;;;;2.08;0.10;;;16.10;47.80;;;;;;5066660;28;20123;-47
2021/11/30 02:17:14;;;;;;;1.38;0.10;;;16.10;47.80;;;;;;5067073;28;20052;-47
2021/11/30 02:19:48;;;;;;;1.42;0.20;;;16.10;47.80;;;;;;5066701;28;20119;-49
2021/11/30 02:22:16;;;;;;;1.85;0.35;;;16.10;47.80;;;;;;5067345;28;20375;-47
2021/11/30 02:24:43;;;;;;;2.50;0.10;;;16.10;48.40;;;;;;5066303;28;20120;-45
2021/11/30 02:27:11;;;;;;;0.50;0.20;;;16.10;47.70;;;;;;5065279;28;20047;-49
2021/11/30 02:29:38;;;;;;;2.30;0.40;;;16.10;47.70;;;;;;5066737;28;20032;-47
2021/11/30 02:32:06;;;;;;;2.58;0.20;;;16.10;47.70;;;;;;5066686;28;20040;-44
2021/11/30 02:34:33;;;;;;;0.20;0.20;;;16.10;47.60;;;;;;5066653;28;20040;-46
2021/11/30 02:37:07;;;;;;;0.82;0.20;;;16.10;47.60;;;;;;5067770;28;20706;-47
2021/11/30 02:39:36;;;;;;;0.30;0.30;;;16.10;47.60;;;;;;5066743;28;20033;-46
2021/11/30 02:42:05;;;;;;;0.22;0.10;;;16.10;47.60;;;;;;5060869;28;20493;-47
2021/11/30 02:44:34;;;;;;;3.08;1.00;;;16.10;47.60;;;;;;5060964;28;20041;-46
2021/11/30 02:47:03;;;;;;;0.57;0.10;;;16.10;47.60;;;;;;5067345;28;20068;-48
2021/11/30 02:49:32;;;;;;;0.20;0.10;;;16.10;48.20;;;;;;5063521;28;20109;-50
2021/11/30 02:52:05;;;;;;;0.25;0.15;;;16.10;47.60;;;;;;5067871;28;20055;-48
2021/11/30 02:54:33;;;;;;;0.50;0.08;;;16.10;47.60;;;;;;5067258;28;20131;-48
2021/11/30 02:57:02;;;;;;;1.75;0.10;;;16.10;47.60;;;;;;5066354;28;20056;-48
2021/11/30 02:59:31;;;;;;;5.60;0.20;;;16.00;47.50;;;;;;5067183;28;20646;-50
2021/11/30 03:02:00;;;;;;;0.20;0.10;;;16.00;47.50;;;;;;5067244;28;20036;-51
2021/11/30 03:04:28;;;;;;;3.38;0.10;;;16.00;47.50;;;;;;5068006;28;20698;-49
2021/11/30 03:06:56;;;;;;;0.40;0.10;;;16.00;47.50;;;;;;5067700;28;20044;-45
2021/11/30 03:09:25;;;;;;;0.30;0.20;;;16.00;47.50;;;;;;5066673;28;20046;-45
2021/11/30 03:11:53;;;;;;;0.10;0.10;;;16.00;47.50;;;;;;5066512;28;20048;-46
2021/11/30 03:14:21;;;;;;;1.30;0.10;;;16.00;47.50;;;;;;5066404;28;20076;-49
2021/11/30 03:16:51;;;;;;;0.20;0.10;;;16.00;47.60;;;;;;5066263;28;20051;-49
2021/11/30 03:19:18;;;;;;;0.32;0.20;;;16.00;47.60;;;;;;5068416;28;20050;-48
2021/11/30 03:21:47;;;;;;;0.85;0.10;;;16.00;47.70;;;;;;5066810;28;20041;-49
2021/11/30 03:24:14;;;;;;;3.80;0.10;;;16.00;47.80;;;;;;5064922;28;20123;-53
2021/11/30 03:26:43;;;;;;;0.55;0.10;;;16.00;47.80;;;;;;5066343;28;20531;-48
2021/11/30 03:29:10;;;;;;;0.32;0.10;;;16.00;47.80;;;;;;5066593;28;20040;-47
2021/11/30 03:31:47;;;;;;;1.08;0.10;;;16.00;47.90;;;;;;5067013;28;20051;-46
2021/11/30 03:34:16;;;;;;;0.10;0.05;;;16.00;47.90;;;;;;5067270;28;20036;-49
2021/11/30 03:36:45;;;;;;;1.50;0.13;;;16.00;47.90;;;;;;5048521;28;20044;-52
2021/11/30 03:39:15;;;;;;;0.57;0.52;;;16.00;47.90;;;;;;5065922;28;20049;-51
2021/11/30 03:41:44;;;;;;;0.65;0.10;;;16.00;47.90;;;;;;5065637;28;20433;-50
2021/11/30 03:44:12;;;;;;;1.23;0.55;;;16.00;47.90;;;;;;5066361;28;20048;-46
2021/11/30 03:46:39;;;;;;;0.60;0.17;;;16.00;47.90;;;;;;5066207;28;20049;-47
2021/11/30 03:49:09;;;;;;;0.47;0.10;;;16.00;47.90;;;;;;5066188;28;20142;-45
2021/11/30 03:51:37;;;;;;;0.10;0.10;;;16.00;47.90;;;;;;5066401;28;20039;-50
2021/11/30 03:54:05;;;;;;;1.00;0.20;;;16.00;47.90;;;;;;5065916;28;20377;-44
2021/11/30 03:56:33;;;;;;;0.17;0.10;;;16.00;47.80;;;;;;5064448;28;20052;-44
2021/11/30 03:59:01;;;;;;;5.53;0.10;;;16.00;47.80;;;;;;5066124;28;20386;-47
2021/11/30 04:01:28;;;;;;;0.22;0.20;;;16.00;47.80;;;;;;5066686;28;20051;-50
2021/11/30 04:03:56;;;;;;;0.82;0.10;;;16.00;47.80;;;;;;5067012;28;20040;-48
2021/11/30 04:06:23;;;;;;;0.40;0.20;;;16.00;47.80;;;;;;5065645;28;20102;-45
2021/11/30 04:08:51;;;;;;;1.80;0.70;;;16.00;47.80;;;;;;5065299;28;20660;-45
2021/11/30 04:11:20;;;;;;;0.10;0.10;;;16.00;47.70;;;;;;5065467;28;20109;-50
2021/11/30 04:13:48;;;;;;;0.20;0.10;;;16.00;47.70;;;;;;5060987;28;20818;-46
2021/11/30 04:16:16;;;;;;;0.65;0.10;;;16.00;47.70;;;;;;5067233;28;20040;-48
2021/11/30 04:18:43;;;;;;;0.22;0.10;;;16.10;47.70;;;;;;5065984;28;20047;-47
2021/11/30 04:21:10;;;;;;;0.15;0.15;;;16.00;47.70;;;;;;5065569;28;20575;-48
2021/11/30 04:23:37;;;;;;;0.95;0.10;;;16.00;47.70;;;;;;5065292;28;20049;-50
2021/11/30 04:26:04;;;;;;;1.00;0.10;;;16.00;47.70;;;;;;5064813;28;20497;-47
2021/11/30 04:28:32;;;;;;;0.35;0.10;;;16.00;47.70;;;;;;5065310;28;20284;-47
2021/11/30 04:30:59;;;;;;;0.10;0.00;;;16.00;47.70;;;;;;5066630;28;20040;-48
2021/11/30 04:33:28;;;;;;;0.10;0.03;;;16.00;47.70;;;;;;5065123;28;20494;-47
2021/11/30 04:35:55;;;;;;;0.43;0.20;;;16.00;47.70;;;;;;5064583;28;20699;-47
2021/11/30 04:38:22;;;;;;;0.60;0.17;;;16.00;48.30;;;;;;5065006;28;20558;-48
2021/11/30 04:40:49;;;;;;;0.52;0.10;;;16.00;47.70;;;;;;5065026;28;20036;-45
2021/11/30 04:43:16;;;;;;;1.05;0.10;;;16.00;47.70;;;;;;5066825;28;20048;-48
2021/11/30 04:45:54;;;;;;;0.20;0.10;;;16.00;47.80;;;;;;5065141;28;20047;-44
2021/11/30 04:48:21;;;;;;;1.05;0.20;;;16.00;47.80;;;;;;5061139;28;20074;-47
2021/11/30 04:50:51;;;;;;;2.83;0.10;;;16.00;47.80;;;;;;5065278;28;20055;-45
2021/11/30 04:53:21;;;;;;;0.13;0.10;;;16.00;47.80;;;;;;5057532;28;20394;-47
2021/11/30 04:55:50;;;;;;;0.17;0.10;;;16.00;47.80;;;;;;5064961;28;20079;-47
2021/11/30 04:58:17;;;;;;;0.40;0.10;;;16.00;47.90;;;;;;5066698;28;20067;-45
2021/11/30 05:00:46;;;;;;;0.65;0.10;;;16.00;47.90;;;;;;5065119;28;20032;-47
2021/11/30 05:03:13;;;;;;;0.30;0.10;;;16.00;47.90;;;;;;5065194;28;20040;-49
2021/11/30 05:05:41;;;;;;;0.45;0.45;;;16.00;47.90;;;;;;5064689;28;20041;-48
2021/11/30 05:08:10;;;;;;;0.20;0.10;;;16.00;47.90;;;;;;5065001;28;20047;-47
2021/11/30 05:10:37;;;;;;;0.38;0.20;;;16.00;47.90;;;;;;5065300;28;20044;-52
2021/11/30 05:13:04;;;;;;;0.10;0.10;;;16.00;47.90;;;;;;5066090;28;20141;-48
2021/11/30 05:15:31;;;;;;;0.10;0.08;;;16.00;48.00;;;;;;5065086;28;20537;-47
2021/11/30 05:17:58;;;;;;;0.40;0.10;;;15.90;47.90;;;;;;5064717;28;20076;-51
2021/11/30 05:20:26;;;;;;;0.10;0.10;;;16.00;48.00;;;;;;5065136;28;20066;-50
2021/11/30 05:22:54;;;;;;;0.10;0.10;;;16.00;48.00;;;;;;5064747;28;20071;-46
2021/11/30 05:25:24;;;;;;;0.15;0.15;;;16.00;48.00;;;;;;5066504;28;20044;-49
2021/11/30 05:27:51;;;;;;;1.13;0.55;;;16.00;48.10;;;;;;5063995;28;20071;-49
2021/11/30 05:30:20;;;;;;;0.60;0.10;;;15.90;48.00;;;;;;5064553;28;20052;-50
2021/11/30 05:32:48;;;;;;;0.10;0.10;;;16.00;48.10;;;;;;5064255;28;20040;-48
2021/11/30 05:35:15;;;;;;;0.10;0.10;;;15.90;48.00;;;;;;5064691;28;20036;-47
2021/11/30 05:37:42;;;;;;;0.25;0.25;;;15.90;48.10;;;;;;5064730;28;20153;-48
2021/11/30 05:40:11;;;;;;;0.22;0.10;;;15.90;48.00;;;;;;5070386;28;20045;-45
2021/11/30 05:42:39;;;;;;;0.10;0.10;;;15.90;48.60;;;;;;5068381;28;20119;-48
2021/11/30 05:45:07;;;;;;;0.10;0.10;;;15.90;48.10;;;;;;5068514;28;20032;-50
2021/11/30 05:47:34;;;;;;;0.57;0.10;;;15.90;48.10;;;;;;5068245;28;20139;-52
2021/11/30 05:50:01;;;;;;;2.58;0.20;;;15.90;48.10;;;;;;5068386;28;20044;-51
2021/11/30 05:52:28;;;;;;;0.10;0.10;;;15.90;48.20;;;;;;5069320;28;20045;-48
2021/11/30 05:54:56;;;;;;;2.58;0.10;;;15.90;48.20;;;;;;5069172;28;20151;-50
2021/11/30 05:57:23;;;;;;;0.57;0.10;;;15.90;48.20;;;;;;5067980;28;20131;-51
2021/11/30 05:59:52;;;;;;;0.20;0.00;;;15.90;48.20;;;;;;5066046;28;20090;-51
2021/11/30 06:02:22;;;;;;;1.10;0.10;;;15.90;48.30;;;;;;5066709;28;20050;-49
2021/11/30 06:04:49;;;;;;;0.20;0.20;;;15.90;48.20;;;;;;5066636;28;20508;-50
2021/11/30 06:07:16;;;;;;;0.20;0.10;;;15.90;48.30;;;;;;5069519;28;20055;-50
2021/11/30 06:09:44;;;;;;;0.10;0.03;;;15.90;48.30;;;;;;5067790;28;20614;-48
2021/11/30 06:12:11;;;;;;;1.10;0.75;;;15.90;48.30;;;;;;5065990;28;20040;-48
2021/11/30 06:14:38;;;;;;;0.30;0.10;;;15.90;48.30;;;;;;5065869;28;20047;-48
2021/11/30 06:17:09;;;;;;;1.15;0.10;;;15.90;48.30;;;;;;5064874;28;20128;-52
2021/11/30 06:19:36;;;;;;;0.20;0.08;;;15.90;48.30;;;;;;5067273;28;20186;-51
2021/11/30 06:22:03;;;;;;;5.53;1.00;;;15.90;48.30;;;;;;5069105;28;20491;-48
2021/11/30 06:24:31;;;;;;;0.68;0.10;;;15.90;48.30;;;;;;5067277;28;20048;-51
2021/11/30 06:26:58;;;;;;;0.15;0.08;;;15.90;48.30;;;;;;5064668;28;20447;-46
2021/11/30 06:29:25;;;;;;;0.13;0.10;;;15.90;48.20;;;;;;5067850;28;20059;-46
2021/11/30 06:31:52;;;;;;;1.35;0.20;;;15.90;48.20;;;;;;5067305;28;20051;-45
2021/11/30 06:34:20;;;;;;;1.38;0.10;;;15.90;48.30;;;;;;5068876;28;20037;-46
2021/11/30 06:36:47;;;;;;;0.17;0.10;;;15.90;48.30;;;;;;5066909;28;20044;-45
2021/11/30 06:39:14;;;;;;;0.75;0.15;;;16.00;48.40;;;;;;5065437;28;20044;-52
2021/11/30 06:41:41;;;;;;;1.88;0.43;;;16.00;48.40;;;;;;5067024;28;20047;-47
2021/11/30 06:44:08;;;;;;;0.38;0.10;;;16.00;48.40;;;;;;5067491;28;20036;-47
2021/11/30 06:46:35;;;;;;;0.15;0.10;;;15.90;48.30;;;;;;5066881;28;20036;-46
2021/11/30 06:49:03;;;;;;;0.20;0.10;;;16.00;48.40;;;;;;5067136;28;20040;-44
2021/11/30 06:51:32;;;;;;;0.40;0.20;;;16.00;48.40;;;;;;5066116;28;20036;-44
2021/11/30 06:53:59;;;;;;;0.57;0.57;;;16.00;48.40;;;;;;5067136;28;20416;-49
2021/11/30 06:56:27;;;;;;;0.20;0.20;;;16.00;48.50;;;;;;5066915;28;20040;-46
2021/11/30 06:58:55;;;;;;;0.70;0.17;;;16.00;48.40;;;;;;5066621;28;20052;-50
2021/11/30 07:01:22;;;;;;;0.93;0.40;;;16.00;48.50;;;;;;5067983;28;20063;-51
2021/11/30 07:03:49;;;;;;;1.55;0.20;;;16.00;48.40;;;;;;5066321;28;20040;-47
2021/11/30 07:06:23;;;;;;;0.20;0.20;;;16.00;48.40;;;;;;5066612;28;20057;-46
2021/11/30 07:09:14;;;;;;;0.40;0.22;;;16.00;48.50;;;;;;5066953;28;20040;-45
2021/11/30 07:11:56;;;;;;;0.63;0.55;;;16.00;48.40;;;;;;5066879;28;20036;-46
2021/11/30 07:14:26;;;;;;;0.63;0.20;;;16.00;48.50;;;;;;5061090;28;20045;-48
2021/11/30 07:16:54;;;;;;;2.03;0.10;;;16.00;48.40;;;;;;5066743;28;20068;-47
2021/11/30 07:19:21;;;;;;;0.95;0.13;;;16.00;48.40;;;;;;5068104;28;20508;-46
2021/11/30 07:21:48;;;;;;;0.15;0.10;;;16.00;48.40;;;;;;5067102;28;20053;-47
2021/11/30 07:24:16;;;;;;;0.20;0.20;;;16.00;48.40;;;;;;5062242;28;20076;-46
2021/11/30 07:26:43;;;;;;;1.33;0.20;;;16.00;48.40;;;;;;5066213;28;20187;-49
2021/11/30 07:29:10;;;;;;;0.20;0.10;;;16.00;48.40;;;;;;5066867;28;20040;-47
2021/11/30 07:31:38;;;;;;;1.33;0.13;;;16.00;48.40;;;;;;5066686;28;20475;-45
2021/11/30 07:34:06;;;;;;;0.77;0.10;;;16.00;48.40;;;;;;5067640;28;20059;-46
2021/11/30 07:36:33;;;;;;;1.33;0.10;;;16.00;48.40;;;;;;5065622;28;20501;-47
2021/11/30 07:39:00;;;;;;;0.30;0.10;;;16.00;48.40;;;;;;5065854;28;20042;-47
2021/11/30 07:41:30;;;;;;;1.05;0.45;;;16.00;48.40;;;;;;5066528;28;20729;-52
2021/11/30 07:43:58;;;;;;;0.17;0.10;;;16.00;48.40;;;;;;5060876;28;20040;-50
2021/11/30 07:46:25;;;;;;;0.20;0.20;;;16.00;48.50;;;;;;5063383;28;20584;-52
2021/11/30 07:48:52;;;;;;;0.22;0.20;;;16.00;48.50;;;;;;5066094;28;20040;-50
2021/11/30 07:51:20;;;;;;;1.55;0.10;;;16.00;48.50;;;;;;5064880;28;20599;-47
2021/11/30 07:53:47;;;;;;;0.32;0.32;;;16.10;48.60;;;;;;5064235;28;20052;-47
2021/11/30 07:56:15;;;;;;;1.98;0.20;;;16.10;48.60;;;;;;5064748;28;20135;-49
2021/11/30 07:58:43;;;;;;;0.60;0.35;;;16.10;48.60;;;;;;5064496;28;20179;-47
2021/11/30 08:01:12;;;;;;;0.93;0.20;;;16.10;48.60;;;;;;5066514;28;20039;-48
2021/11/30 08:03:39;;;;;;;0.10;0.10;;;16.00;48.50;;;;;;5065104;28;20547;-48
2021/11/30 08:06:06;;;;;;;1.65;0.10;;;16.10;48.60;;;;;;5065154;28;20056;-52
2021/11/30 08:08:33;;;;;;;0.10;0.10;;;16.00;48.60;;;;;;5065405;28;20577;-47
2021/11/30 08:11:01;;;;;;;0.13;0.10;;;16.10;48.50;;;;;;5062097;28;20037;-48
2021/11/30 08:13:28;;;;;;;0.80;0.20;;;16.00;48.50;;;;;;5065925;28;20051;-47
2021/11/30 08:15:57;;;;;;;0.45;0.10;;;16.10;48.60;;;;;;5065348;28;20037;-47
2021/11/30 08:18:24;;;;;;;0.73;0.10;;;16.10;48.50;;;;;;5064828;28;20045;-45
2021/11/30 08:20:51;;;;;;;0.52;0.10;;;16.10;48.50;;;;;;5064851;28;20036;-50
2021/11/30 08:23:18;;;;;;;0.57;0.43;;;16.10;48.50;;;;;;5064253;28;20135;-47
2021/11/30 08:25:46;;;;;;;1.60;0.20;;;16.10;48.60;;;;;;5065235;28;20072;-44
2021/11/30 08:28:13;;;;;;;0.30;0.30;;;16.10;48.60;;;;;;5067231;28;20453;-50
2021/11/30 08:30:41;;;;;;;2.83;0.10;;;16.10;48.60;;;;;;5063340;28;20036;-47
2021/11/30 08:33:09;;;;;;;1.95;0.20;;;16.10;48.70;;;;;;5064936;28;20051;-47
2021/11/30 08:35:37;;;;;;;0.40;0.20;;;16.10;48.70;;;;;;5065367;28;20086;-48
2021/11/30 08:38:05;;;;;;;5.18;0.10;;;16.10;48.80;;;;;;5064369;28;20044;-46
2021/11/30 08:40:33;;;;;;;0.50;0.10;;;16.10;48.90;;;;;;5061326;28;20040;-45
2021/11/30 08:43:01;;;;;;;1.00;0.17;;;16.10;49.10;;;;;;5065032;28;20526;-49
2021/11/30 08:45:29;;;;;;;4.85;0.90;;;16.10;49.10;;;;;;5056768;28;20041;-46
2021/11/30 08:47:56;;;;;;;2.40;0.20;;;16.10;49.10;;;;;;5060160;28;20130;-47
2021/11/30 08:50:26;;;;;;;0.57;0.15;;;16.10;49.10;;;;;;5064657;28;20044;-45
2021/11/30 08:52:53;;;;;;;3.13;0.10;;;16.10;49.10;;;;;;5061111;28;20049;-48
2021/11/30 08:55:20;;;;;;;0.57;0.10;;;16.10;49.10;;;;;;5066400;28;20056;-48
2021/11/30 08:57:47;;;;;;;2.88;0.28;;;16.10;49.10;;;;;;5063726;28;22456;-47
2021/11/30 09:00:19;;;;;;;2.47;0.57;;;16.10;49.10;;;;;;5061828;28;20040;-48
2021/11/30 09:02:46;;;;;;;0.95;0.10;;;16.20;49.20;;;;;;5063572;28;20655;-47
2021/11/30 09:05:16;;;;;;;1.75;0.30;;;16.10;49.10;;;;;;5062547;28;20044;-50
2021/11/30 09:07:44;;;;;;;1.70;0.17;;;16.20;49.20;;;;;;5061369;28;20046;-49
2021/11/30 09:10:12;;;;;;;1.10;0.10;;;16.20;49.20;;;;;;5063307;28;20044;-49
2021/11/30 09:12:39;;;;;;;0.52;0.10;;;16.20;49.20;;;;;;5060821;28;20419;-47
2021/11/30 09:15:08;;;;;;;1.55;0.30;;;16.20;49.10;;;;;;5059109;28;20052;-48
2021/11/30 09:17:37;;;;;;;0.10;0.10;;;16.20;49.10;;;;;;5063697;28;20481;-47
2021/11/30 09:20:06;;;;;;;1.33;1.23;;;16.20;49.20;;;;;;5064434;28;20029;-46
2021/11/30 09:22:33;;;;;;;0.20;0.20;;;16.20;49.20;;;;;;5065431;28;20455;-49
2021/11/30 09:25:03;;;;;;;2.15;0.10;;;16.20;49.20;;;;;;5065842;28;20622;-46
2021/11/30 09:27:31;;;;;;;0.80;0.60;;;16.30;49.20;;;;;;5062860;28;20052;-45
2021/11/30 09:29:59;;;;;;;0.65;0.10;;;16.30;49.20;;;;;;5064604;28;20048;-47
2021/11/30 09:32:30;;;;;;;0.43;0.10;;;16.30;49.20;;;;;;5064409;28;20060;-47
2021/11/30 09:34:57;;;;;;;1.30;0.13;;;16.30;49.20;;;;;;5061562;28;20040;-45
2021/11/30 09:37:25;;;;;;;1.40;0.50;;;16.30;49.20;;;;;;5059809;28;20041;-47
2021/11/30 09:39:52;;;;;;;0.73;0.13;;;16.30;49.20;;;;;;5064696;28;20117;-44
2021/11/30 09:42:21;;;;;;;0.50;0.10;;;16.30;49.20;;;;;;5062415;28;20041;-47
2021/11/30 09:44:48;;;;;;;0.52;0.20;;;16.30;49.10;;;;;;5064068;28;20055;-46
2021/11/30 09:47:16;;;;;;;0.15;0.10;;;16.30;49.10;;;;;;5063929;28;20051;-45
2021/11/30 09:49:45;;;;;;;0.20;0.20;;;16.30;49.10;;;;;;5064006;28;20041;-49
2021/11/30 09:52:13;;;;;;;0.32;0.17;;;16.30;49.10;;;;;;5065748;28;20037;-49
2021/11/30 09:54:40;;;;;;;1.20;0.20;;;16.30;49.10;;;;;;5064032;28;20127;-45
2021/11/30 09:57:07;;;;;;;0.15;0.15;;;16.40;49.20;;;;;;5063338;28;20055;-48
2021/11/30 09:59:36;;;;;;;0.20;0.10;;;16.40;49.20;;;;;;5063778;28;20079;-45
2021/11/30 10:02:03;;;;;;;0.95;0.20;;;16.40;49.20;;;;;;5064397;28;20048;-45
2021/11/30 10:04:30;;;;;;;0.30;0.30;;;16.40;49.20;;;;;;5064779;28;20044;-48
2021/11/30 10:06:58;;;;;;;0.60;0.20;;;16.40;49.20;;;;;;5064932;28;20569;-50
2021/11/30 10:09:25;;;;;;;1.10;0.20;;;16.40;49.20;;;;;;5063155;28;20111;-47
2021/11/30 10:11:58;;;;;;;0.30;0.10;;;16.40;49.20;;;;;;5063110;28;20874;-49
2021/11/30 10:14:33;;;;;;;0.30;0.20;;;16.50;49.20;;;;;;5064180;28;20048;-45
2021/11/30 10:17:16;;;;;;;0.30;0.20;;;16.50;49.20;;;;;;5060817;28;20563;-45
2021/11/30 10:19:45;;;;;;;0.38;0.20;;;16.50;49.30;;;;;;5063934;28;20527;-44
2021/11/30 10:22:12;;;;;;;2.38;0.20;;;16.50;49.20;;;;;;5065916;28;20045;-48
2021/11/30 10:24:39;;;;;;;5.03;0.30;;;16.50;49.20;;;;;;5064417;28;20413;-48
2021/11/30 10:27:07;;;;;;;5.05;0.55;;;16.50;49.20;;;;;;5067933;28;20036;-52
2021/11/30 10:29:41;;;;;;;15.95;0.45;;;16.50;49.20;;;;;;5067284;28;20036;-50
2021/11/30 10:32:08;;;;;;;17.75;1.25;;;16.60;49.70;;;;;;5066515;28;20051;-46
2021/11/30 10:34:37;;;;;;;12.43;2.20;;;16.50;52.50;;;;;;5067580;28;20072;-46
2021/11/30 10:37:11;;;;;;;16.45;3.60;;;16.60;54.80;;;;;;5068257;28;20051;-46
2021/11/30 10:39:42;;;;;;;11.10;2.90;;;16.60;56.20;;;;;;5065400;28;20412;-48
2021/11/30 10:42:15;;;;;;;9.45;3.15;;;16.70;56.80;;;;;;5066633;28;20044;-46
2021/11/30 10:44:43;;;;;;;17.88;3.50;;;16.70;57.50;;;;;;5067698;28;20119;-49
2021/11/30 10:47:13;;;;;;;13.38;2.67;;;16.80;57.60;;;;;;5065563;28;20049;-47
2021/11/30 10:49:53;;;;;;;9.60;3.25;;;16.80;57.80;;;;;;5066356;28;20040;-47
2021/11/30 10:52:22;;;;;;;6.97;3.00;;;16.80;58.00;;;;;;5068669;28;20076;-48
2021/11/30 10:54:50;;;;;;;9.65;2.20;;;16.80;58.00;;;;;;5063837;28;20037;-48
2021/11/30 10:57:17;;;;;;;3.42;2.28;;;16.80;57.90;;;;;;5061144;28;20401;-45
2021/11/30 10:59:45;;;;;;;10.20;2.80;;;16.90;57.90;;;;;;5060364;28;20068;-50
2021/11/30 11:02:12;;;;;;;7.78;1.83;;;16.80;57.80;;;;;;5067319;28;20059;-49
2021/11/30 11:04:40;;;;;;;13.95;2.00;;;16.90;57.80;;;;;;5065497;28;20102;-51
2021/11/30 11:07:12;;;;;;;11.50;2.33;;;16.90;57.60;;;;;;5068668;28;20043;-49
2021/11/30 11:09:44;;;;;;;9.15;1.42;;;16.90;57.50;;;;;;5064738;28;20042;-48
2021/11/30 11:12:12;;;;;;;10.43;2.42;;;16.90;57.30;;;;;;5067323;28;20060;-49
2021/11/30 11:14:47;;;;;;;6.88;1.65;;;16.90;57.10;;;;;;5066846;28;20028;-50
2021/11/30 11:17:28;;;;;;;6.05;1.08;;;16.90;57.00;;;;;;5066923;28;20039;-50
2021/11/30 11:19:55;;;;;;;6.72;1.00;;;16.90;56.80;;;;;;5064539;28;20127;-53
2021/11/30 11:22:25;;;;;;;5.28;1.45;;;16.90;56.60;;;;;;5068465;28;20513;-46
2021/11/30 11:24:56;;;;;;;5.78;1.35;;;16.90;56.40;;;;;;5066943;28;20040;-48
2021/11/30 11:27:31;;;;;;;8.70;1.25;;;16.90;56.20;;;;;;5066442;28;20032;-46
2021/11/30 11:29:59;;;;;;;7.40;1.10;;;16.90;56.00;;;;;;5066854;28;20032;-49
2021/11/30 11:32:26;;;;;;;1.80;0.50;;;16.90;55.90;;;;;;5066646;28;20051;-46
2021/11/30 11:34:54;;;;;;;6.25;0.80;;;16.80;55.70;;;;;;5066738;28;20412;-48
2021/11/30 11:37:21;;;;;;;6.50;0.60;;;16.80;55.60;;;;;;5067788;28;20036;-49
2021/11/30 11:39:51;;;;;;;2.45;0.30;;;16.80;55.40;;;;;;5065604;28;20106;-47
2021/11/30 11:42:20;;;;;;;4.57;0.70;;;16.80;55.30;;;;;;5064715;28;20037;-48
2021/11/30 11:44:48;;;;;;;6.35;1.67;;;16.80;55.10;;;;;;5066175;28;20608;-46
2021/11/30 11:47:17;;;;;;;7.32;0.68;;;16.90;55.10;;;;;;5066130;28;20040;-50
2021/11/30 11:49:47;;;;;;;3.38;1.27;;;16.80;54.90;;;;;;5064836;28;20103;-50
2021/11/30 11:52:23;;;;;;;2.13;0.32;;;16.80;55.40;;;;;;5066646;28;20049;-50
2021/11/30 11:55:03;;;;;;;4.55;0.40;;;16.90;55.00;;;;;;5066052;28;20570;-50
2021/11/30 11:57:31;;;;;;;2.75;0.50;;;16.90;54.40;;;;;;5065916;28;20045;-45
2021/11/30 12:00:17;;;;;;;5.00;0.50;;;16.80;54.30;;;;;;5065548;28;20052;-46
2021/11/30 12:02:53;;;;;;;3.15;1.00;;;16.90;54.20;;;;;;5065907;28;20041;-50
2021/11/30 12:05:42;;;;;;;1.40;0.17;;;16.80;54.00;;;;;;5059759;28;20060;-47
2021/11/30 12:08:20;;;;;;;1.50;0.57;;;16.90;53.90;;;;;;5062568;28;20047;-47
2021/11/30 12:10:50;;;;;;;2.10;0.50;;;16.90;53.80;;;;;;5062650;28;20090;-47
2021/11/30 12:13:20;;;;;;;1.15;0.30;;;16.90;53.70;;;;;;5067235;28;20094;-50
2021/11/30 12:15:59;;;;;;;0.70;0.22;;;16.80;53.40;;;;;;5065529;28;20044;-46
2021/11/30 12:18:28;;;;;;;0.85;0.20;;;16.90;53.30;;;;;;5062291;28;20094;-50
2021/11/30 12:21:09;;;;;;;1.50;0.30;;;16.90;53.30;;;;;;5058865;28;20055;-46
2021/11/30 12:23:37;;;;;;;0.77;0.15;;;16.90;53.10;;;;;;5060595;28;20045;-53
2021/11/30 12:26:30;;;;;;;1.80;0.52;;;16.80;53.00;;;;;;5065283;28;20068;-49
2021/11/30 12:28:58;;;;;;;1.60;0.90;;;16.80;52.90;;;;;;5064415;28;20040;-49
2021/11/30 12:31:30;;;;;;;0.73;0.20;;;16.80;52.90;;;;;;5067215;28;20132;-48
2021/11/30 12:33:57;;;;;;;0.47;0.13;;;16.80;52.80;;;;;;5066511;28;20051;-49
2021/11/30 12:36:30;;;;;;;1.85;0.20;;;16.80;52.70;;;;;;5063391;28;20111;-51
2021/11/30 12:38:58;;;;;;;1.08;0.20;;;16.80;52.60;;;;;;5058702;28;20041;-47
2021/11/30 12:41:29;;;;;;;0.32;0.22;;;16.80;52.60;;;;;;5059392;28;20044;-47
2021/11/30 12:43:59;;;;;;;2.13;0.35;;;16.80;52.50;;;;;;5059417;28;20051;-52
2021/11/30 12:46:31;;;;;;;1.35;0.20;;;16.80;52.50;;;;;;5062304;28;20394;-48
2021/11/30 12:48:59;;;;;;;0.20;0.15;;;16.80;52.40;;;;;;5064863;28;20056;-48
2021/11/30 12:51:29;;;;;;;1.77;0.10;;;16.80;52.30;;;;;;5063114;28;20040;-51
2021/11/30 12:53:58;;;;;;;1.80;0.40;;;16.80;52.30;;;;;;5064823;28;20782;-50